createdAt,value
2018-02-07T09:04:20.483Z,20.90
2018-02-07T09:06:55.662Z,21.10
2018-02-07T09:09:30.897Z,21.20
2018-02-07T10:18:21.602Z,25.70
2018-02-07T10:20:56.064Z,25.60
2018-02-07T10:23:30.859Z,25.60
2018-02-07T10:26:05.468Z,25.60
2018-02-07T10:28:40.378Z,25.50
2018-02-07T10:31:14.925Z,25.50
2018-02-07T10:33:49.589Z,25.50
2018-02-07T10:36:24.868Z,25.50
2018-02-07T10:38:59.470Z,25.40
2018-02-07T10:41:34.773Z,25.40
2018-02-07T10:44:09.511Z,25.40
2018-02-07T10:46:44.440Z,25.40
2018-02-07T10:49:19.371Z,25.50
2018-02-07T10:51:54.437Z,25.50
2018-02-07T10:54:27.915Z,25.60
2018-02-07T10:57:02.489Z,25.60
2018-02-07T10:59:37.064Z,25.60
2018-02-07T11:02:12.008Z,25.70
2018-02-07T11:04:46.674Z,25.70
2018-02-07T11:07:21.801Z,25.70
2018-02-07T11:35:06.700Z,25.40
2018-02-07T11:37:41.672Z,25.40
2018-02-07T11:40:16.353Z,25.40
2018-02-07T11:42:51.049Z,25.40
2018-02-07T11:45:26.019Z,25.30
2018-02-07T11:48:02.874Z,25.30
2018-02-07T11:50:38.069Z,25.30
2018-02-07T11:53:13.049Z,25.40
2018-02-07T11:55:47.826Z,25.40
2018-02-07T11:58:24.050Z,25.50
2018-02-07T12:00:59.041Z,25.60
2018-02-07T12:03:34.115Z,25.70
2018-02-07T12:06:06.851Z,25.70
2018-02-07T12:08:42.209Z,25.80
2018-02-07T12:11:17.024Z,25.70
2018-02-07T12:13:51.955Z,25.10
2018-02-07T12:16:26.897Z,24.50
2018-02-07T12:19:02.661Z,23.60
2018-02-07T12:21:38.452Z,23.20
2018-02-07T12:24:13.149Z,23.20
2018-02-07T12:26:48.668Z,22.70
2018-02-07T12:29:23.603Z,22.70
2018-02-07T12:31:58.720Z,22.50
2018-02-07T12:34:33.391Z,22.40
2018-02-07T12:37:07.886Z,22.30
2018-02-07T12:39:42.569Z,22.20
2018-02-07T12:42:17.351Z,22.20
2018-02-07T12:44:52.836Z,22.10
2018-02-07T12:47:25.762Z,22.00
2018-02-07T12:50:01.039Z,22.10
2018-02-07T12:52:35.823Z,22.10
2018-02-07T12:55:10.290Z,22.00
2018-02-07T12:57:45.614Z,22.00
2018-02-07T13:00:20.156Z,22.00
2018-02-07T13:02:54.658Z,22.00
2018-02-07T13:05:29.468Z,22.10
2018-02-07T13:08:02.335Z,22.00
2018-02-07T13:10:37.066Z,22.00
2018-02-07T13:13:12.464Z,22.00
2018-02-07T13:15:47.067Z,22.00
2018-02-07T13:18:21.701Z,22.00
2018-02-07T13:20:56.336Z,22.00
2018-02-07T13:23:31.084Z,22.00
2018-02-07T13:26:05.603Z,21.90
2018-02-07T13:28:38.783Z,21.90
2018-02-07T13:31:13.290Z,21.90
2018-02-07T13:33:46.185Z,21.80
2018-02-07T13:36:21.031Z,21.80
2018-02-07T13:38:53.794Z,21.80
2018-02-07T13:41:26.985Z,21.80
2018-02-07T13:44:02.663Z,21.80
2018-02-07T13:46:37.411Z,21.80
2018-02-07T13:49:12.034Z,21.80
2018-02-07T13:51:48.214Z,21.70
2018-02-07T13:54:22.967Z,21.70
2018-02-07T13:56:57.773Z,21.70
2018-02-07T13:59:33.088Z,21.70
2018-02-07T14:02:07.560Z,21.70
2018-02-07T14:04:41.831Z,21.70
2018-02-07T14:07:17.496Z,21.70
2018-02-07T14:09:52.159Z,21.60
2018-02-07T14:12:26.736Z,21.70
2018-02-07T14:15:00.225Z,21.70
2018-02-07T14:17:32.963Z,21.60
2018-02-07T14:20:07.735Z,21.70
2018-02-07T14:22:42.956Z,21.70
2018-02-07T14:25:18.268Z,21.70
2018-02-07T14:27:52.858Z,21.60
2018-02-07T14:30:27.464Z,21.70
2018-02-07T14:33:00.478Z,21.70
2018-02-07T14:35:35.115Z,21.70
2018-02-07T14:38:09.624Z,21.70
2018-02-07T14:40:45.086Z,21.70
2018-02-07T14:43:19.555Z,21.70
2018-02-07T14:45:55.507Z,21.70
2018-02-07T14:48:30.376Z,21.70
2018-02-07T14:51:05.077Z,21.70
2018-02-07T14:53:39.873Z,21.70
2018-02-07T14:56:15.194Z,21.70
2018-02-07T14:58:50.354Z,21.70
2018-02-07T15:01:25.916Z,21.70
2018-02-07T15:04:00.569Z,21.70
2018-02-07T15:06:35.181Z,21.80
2018-02-07T15:09:09.659Z,21.80
2018-02-07T15:11:45.373Z,21.80
2018-02-07T15:14:20.272Z,21.70
2018-02-07T15:16:54.750Z,21.80
2018-02-07T15:19:29.497Z,21.70
2018-02-07T15:22:03.991Z,21.80
2018-02-07T15:24:38.687Z,21.70
2018-02-07T15:27:13.718Z,21.70
2018-02-07T15:29:48.505Z,21.70
2018-02-07T15:32:23.980Z,21.70
2018-02-07T15:34:59.433Z,21.70
2018-02-07T15:37:34.003Z,21.70
2018-02-07T15:40:08.658Z,21.70
2018-02-07T15:42:43.894Z,21.70
2018-02-07T15:45:18.541Z,21.70
2018-02-07T15:47:51.201Z,21.70
2018-02-07T15:50:25.533Z,21.70
2018-02-07T15:52:59.938Z,21.70
2018-02-07T15:55:34.964Z,21.70
2018-02-07T15:58:09.785Z,21.70
2018-02-07T16:00:45.204Z,21.80
2018-02-07T16:03:20.637Z,21.70
2018-02-07T16:05:55.482Z,21.70
2018-02-07T16:08:28.911Z,21.70
2018-02-07T16:11:01.721Z,21.70
2018-02-07T17:30:52.797Z,11.20
2018-02-07T17:33:25.321Z,8.90
2018-02-07T17:35:57.804Z,7.10
2018-02-07T17:38:31.083Z,4.00
2018-02-07T17:41:03.559Z,3.90
2018-02-07T17:43:36.140Z,2.90
2018-02-07T17:46:08.586Z,2.00
2018-02-07T17:48:42.119Z,1.30
2018-02-07T17:51:15.391Z,0.30
2018-02-07T17:53:49.080Z,0.20
2018-02-07T17:56:21.600Z,0.00
2018-02-07T17:58:54.088Z,-0.30
2018-02-07T18:01:27.341Z,-0.60
2018-02-07T18:03:59.815Z,-0.70
2018-02-07T18:06:32.316Z,-0.70
2018-02-07T18:09:04.764Z,-0.80
2018-02-07T18:11:37.251Z,-0.90
2018-02-07T18:14:09.854Z,-0.90
2018-02-07T18:16:43.075Z,-1.00
2018-02-07T18:19:15.564Z,-1.00
2018-02-07T18:21:48.020Z,-1.00
2018-02-07T18:24:20.512Z,-1.10
2018-02-07T18:26:52.973Z,-1.10
2018-02-07T18:29:25.475Z,-1.10
2018-02-07T18:31:58.173Z,-1.20
2018-02-07T18:34:31.444Z,-1.30
2018-02-07T18:37:03.946Z,-1.30
2018-02-07T18:39:36.398Z,-1.30
2018-02-07T18:42:08.887Z,-1.30
2018-02-07T18:44:41.343Z,-1.30
2018-02-07T18:47:13.824Z,-1.30
2018-02-07T18:49:46.288Z,-1.30
2018-02-07T18:52:18.784Z,-1.30
2018-02-07T18:54:51.260Z,-1.30
2018-02-07T18:57:23.743Z,-1.30
2018-02-07T18:59:56.204Z,-1.30
2018-02-07T19:02:28.692Z,-1.30
2018-02-07T19:05:01.156Z,-1.20
2018-02-07T19:07:33.679Z,-1.20
2018-02-07T19:10:06.136Z,-1.20
2018-02-07T19:12:38.595Z,-1.20
2018-02-07T19:15:11.140Z,-1.20
2018-02-07T19:17:43.592Z,-1.20
2018-02-07T19:20:16.077Z,-1.20
2018-02-07T19:22:48.549Z,-1.20
2018-02-07T19:25:21.039Z,-1.20
2018-02-07T19:27:53.508Z,-1.20
2018-02-07T19:30:25.992Z,-1.20
2018-02-07T19:32:58.459Z,-1.20
2018-02-07T19:35:30.949Z,-1.20
2018-02-07T19:38:03.413Z,-1.20
2018-02-07T19:40:35.908Z,-1.20
2018-02-07T19:43:08.372Z,-1.20
2018-02-07T19:45:40.866Z,-1.20
2018-02-07T19:48:13.337Z,-1.20
2018-02-07T19:50:45.817Z,-1.20
2018-02-07T19:53:18.288Z,-1.20
2018-02-07T19:55:51.635Z,-1.10
2018-02-07T19:58:24.244Z,-1.10
2018-02-07T20:00:56.737Z,-1.20
2018-02-07T20:03:29.227Z,-1.20
2018-02-07T20:06:01.708Z,-1.20
2018-02-07T20:08:34.174Z,-1.20
2018-02-07T20:11:06.660Z,-1.20
2018-02-07T20:13:39.132Z,-1.20
2018-02-07T20:16:11.615Z,-1.20
2018-02-07T20:18:44.117Z,-1.20
2018-02-07T20:21:17.368Z,-1.20
2018-02-07T20:23:49.844Z,-1.20
2018-02-07T20:26:22.311Z,-1.20
2018-02-07T20:28:54.799Z,-1.20
2018-02-07T20:31:27.263Z,-1.20
2018-02-07T20:33:59.740Z,-1.20
2018-02-07T20:36:32.231Z,-1.20
2018-02-07T20:39:04.756Z,-1.20
2018-02-07T20:41:37.262Z,-1.20
2018-02-07T20:44:09.723Z,-1.20
2018-02-07T20:46:42.196Z,-1.20
2018-02-07T20:49:14.656Z,-1.20
2018-02-07T20:51:47.152Z,-1.20
2018-02-07T20:54:19.676Z,-1.10
2018-02-07T20:56:52.974Z,-1.20
2018-02-07T20:59:25.391Z,-1.20
2018-02-07T21:01:57.896Z,-1.10
2018-02-07T21:04:32.122Z,-1.20
2018-02-07T21:07:04.611Z,-1.20
2018-02-07T21:09:37.063Z,-1.10
2018-02-07T21:12:09.563Z,-1.10
2018-02-07T21:14:42.792Z,-1.10
2018-02-07T21:17:15.289Z,-1.10
2018-02-07T21:19:47.760Z,-1.10
2018-02-07T21:22:20.264Z,-1.00
2018-02-07T21:24:52.720Z,-1.00
2018-02-07T21:27:25.205Z,-1.00
2018-02-07T21:29:57.676Z,-1.10
2018-02-07T21:32:30.321Z,-1.10
2018-02-07T21:35:02.796Z,-1.10
2018-02-07T21:37:35.368Z,-1.20
2018-02-07T21:40:07.824Z,-1.20
2018-02-07T21:42:41.076Z,-1.20
2018-02-07T21:45:13.538Z,-1.20
2018-02-07T21:47:46.029Z,-1.20
2018-02-07T21:50:19.084Z,-1.20
2018-02-07T21:52:51.557Z,-1.10
2018-02-07T21:55:24.046Z,-1.10
2018-02-07T21:57:56.507Z,-1.10
2018-02-07T22:00:29.007Z,-1.10
2018-02-07T22:03:01.482Z,-1.10
2018-02-07T22:05:34.732Z,-1.10
2018-02-07T22:08:07.196Z,-1.10
2018-02-07T22:10:40.443Z,-1.10
2018-02-07T22:13:12.900Z,-1.10
2018-02-07T22:15:45.387Z,-1.10
2018-02-07T22:18:18.604Z,-1.10
2018-02-07T22:20:51.092Z,-1.10
2018-02-07T22:23:23.555Z,-1.00
2018-02-07T22:25:56.043Z,-1.10
2018-02-07T22:28:28.507Z,-1.10
2018-02-07T22:31:01.004Z,-1.20
2018-02-07T22:33:34.232Z,-1.20
2018-02-07T22:36:06.728Z,-1.20
2018-02-07T22:38:39.179Z,-1.30
2018-02-07T22:41:11.667Z,-1.30
2018-02-07T22:43:44.174Z,-1.30
2018-02-07T22:46:16.708Z,-1.30
2018-02-07T22:48:49.168Z,-1.20
2018-02-07T22:51:21.674Z,-1.20
2018-02-07T22:53:54.139Z,-1.20
2018-02-07T22:56:26.627Z,-1.20
2018-02-07T22:58:59.082Z,-1.20
2018-02-07T23:01:31.571Z,-1.20
2018-02-07T23:04:04.037Z,-1.20
2018-02-07T23:06:36.511Z,-1.20
2018-02-07T23:09:08.968Z,-1.30
2018-02-07T23:11:41.460Z,-1.30
2018-02-07T23:14:13.940Z,-1.30
2018-02-07T23:16:46.413Z,-1.30
2018-02-07T23:19:18.897Z,-1.30
2018-02-07T23:21:51.359Z,-1.30
2018-02-07T23:24:23.835Z,-1.30
2018-02-07T23:26:56.304Z,-1.30
2018-02-07T23:29:28.788Z,-1.20
2018-02-07T23:32:01.263Z,-1.20
2018-02-07T23:34:33.733Z,-1.20
2018-02-07T23:37:06.225Z,-1.20
2018-02-07T23:39:38.680Z,-1.20
2018-02-07T23:42:11.168Z,-1.20
2018-02-07T23:44:43.655Z,-1.10
2018-02-07T23:47:16.117Z,-1.20
2018-02-07T23:49:48.611Z,-1.20
2018-02-07T23:52:21.110Z,-1.20
2018-02-07T23:54:53.586Z,-1.20
2018-02-07T23:57:26.078Z,-1.30
2018-02-07T23:59:59.319Z,-1.20
